Flight Track Log - Related Links

Times and Time Zones

All times are in EDT time to prevent confusion due to time zone crossing. See the VH-FNJ flight status page for this flight to view local times or setup timezone preferences in your user account.

Time Position Orientation Groundspeed Altitude Reporting Facility
EDT Latitude Longitude Course Direction KTS MPH feet Rate Location/Type
Sat 12:36:19 AM -22.2348 114.0942 166° South 35,000  Level Aus ATC (Calculated)
Sat 12:36:29 AM -22.3102 114.1139 166° South 35,000 -2,635 Level Aus ATC (Calculated)
Sat 12:37:16 AM -22.3856 114.1336 166° South 35,000 -2,710 Level Aus ATC (Calculated)
Sat 12:39:00 AM -22.4408 114.1481 166° South  Level FlightAware Approximate
Sat 12:40:00 AM -22.5626 114.1800 166° South  Level FlightAware Approximate
Sat 12:40:16 AM -22.6870 114.2127 167° South 35,000  Level Aus ATC (Calculated)
Sat 12:42:21 AM -22.7895 114.2388 166° South 326 375 19,100 -4,663 Descending Aus ATC (RADAR)
Sat 12:43:20 AM -22.8842 114.2636 166° South 330 380 20,700 1,551 Climbing Aus ATC (RADAR)
Sat 12:43:50 AM -22.9320 114.2760 166° South 365 420 21,400 1,745 Climbing FlightAware ADS-B
Sat 12:44:15 AM -22.9742 114.2872 166° South 344 396 22,300 2,000 Climbing Aus ATC (RADAR)
Sat 12:44:26 AM -22.9920 114.2920 166° South 361 415 22,600 1,475 Climbing FlightAware ADS-B
Sat 12:45:16 AM -23.0750 114.3140 166° South 371 427 23,800 1,432 Climbing FlightAware ADS-B
Sat 12:45:54 AM -23.1400 114.3310 166° South 379 436 24,700 1,462 Climbing FlightAware ADS-B
Sat 12:46:34 AM -23.2090 114.3470 166° South 378 435 25,700 1,610 Climbing FlightAware ADS-B
Sat 12:46:35 AM -23.2073 114.3471 166° South 354 407 25,800 1,000 Climbing Aus ATC (RADAR)
Sat 12:47:22 AM -23.2920 114.3670 168° South 392 451 26,500 876 Climbing FlightAware ADS-B
Sat 12:48:04 AM -23.3690 114.3870 167° South 407 468 27,100 1,185 Climbing FlightAware ADS-B
Sat 12:48:43 AM -23.4390 114.4070 167° South 404 465 28,100 1,756 Climbing FlightAware ADS-B
Sat 12:48:45 AM -23.4437 114.4076 167° South 395 455 28,300 1,600 Climbing Aus ATC (RADAR)
Sat 12:49:28 AM -23.5220 114.4290 166° South 400 460 29,300 1,575 Climbing FlightAware ADS-B
Sat 12:50:05 AM -23.5862 114.4467 166° South 385 443 30,400 1,650 Climbing Aus ATC (RADAR)
Sat 12:50:08 AM -23.5930 114.4480 166° South 393 452 30,400 1,116 Level FlightAware ADS-B
Sat 12:50:48 AM -23.6640 114.4670 166° South 396 456 31,200 1,024 Climbing FlightAware ADS-B
Sat 12:51:30 AM -23.7400 114.4870 166° South 405 466 31,800 940 Climbing FlightAware ADS-B
Sat 12:52:11 AM -23.8150 114.5080 166° South 411 473 32,500 1,378 Climbing FlightAware ADS-B
Sat 12:52:44 AM -23.8765 114.5246 166° South 390 449 33,500 1,500 Climbing Aus ATC (RADAR)
Sat 12:52:55 AM -23.8950 114.5300 166° South 402 463 33,600 964 Climbing FlightAware ADS-B
Sat 12:53:40 AM -23.9780 114.5520 166° South 404 465 34,400 1,215 Climbing FlightAware ADS-B
Sat 12:54:14 AM -24.0397 114.5689 166° South 387 445 35,200 900 Climbing Aus ATC (RADAR)
Sat 12:54:20 AM -24.0510 114.5720 166° South 404 465 35,000 -267 Descending FlightAware ADS-B
Sat 12:54:59 AM -24.1220 114.5910 166° South 423 487 35,000 136 Level FlightAware ADS-B
Sat 12:55:04 AM -24.1311 114.5930 166° South 393 452 35,100  Climbing Aus ATC (RADAR)
Sat 12:55:44 AM -24.1920 114.6100 166° South 431 496 35,000 -73 Descending FlightAware ADS-B
Sat 12:56:26 AM -24.2930 114.6370 166° South 433 498 35,000  Level FlightAware ADS-B
Sat 12:57:06 AM -24.3700 114.6580 166° South 434 499 35,000  Level FlightAware ADS-B
Sat 12:57:48 AM -24.4520 114.6800 166° South 436 502 35,000 140 Level FlightAware ADS-B
Sat 12:57:49 AM -24.4529 114.6803 166° South 422 486 35,100  Climbing Aus ATC (RADAR)
Sat 12:58:31 AM -24.5350 114.7030 166° South 433 498 35,000 -71 Descending FlightAware ADS-B
Sat 12:59:14 AM -24.6200 114.7280 165° South 432 497 35,000  Level FlightAware ADS-B
Sat 12:59:57 AM -24.7040 114.7510 166° South 432 497 35,000 71 Level FlightAware ADS-B
Sat 01:00:39 AM -24.7840 114.7740 166° South 420 483 35,100  Climbing Aus ATC (RADAR)
Sat 01:00:50 AM -24.8070 114.7800 166° South 431 496 35,000 -109 Descending FlightAware ADS-B
Sat 01:01:34 AM -24.8930 114.8030 166° South 433 498 35,000  Level FlightAware ADS-B
Sat 01:02:16 AM -24.9710 114.8250 166° South 432 497 35,000  Level FlightAware ADS-B
Sat 01:02:56 AM -25.0520 114.8470 166° South 432 497 35,000 143 Level FlightAware ADS-B
Sat 01:02:58 AM -25.0554 114.8483 166° South 421 484 35,100  Climbing Aus ATC (RADAR)
Sat 01:03:39 AM -25.1350 114.8700 166° South 431 496 35,000 -72 Descending FlightAware ADS-B
Sat 01:04:21 AM -25.2170 114.8920 166° South 432 497 35,000 136 Level FlightAware ADS-B
Sat 01:04:23 AM -25.2208 114.8939 166° South 422 486 35,100  Climbing Aus ATC (RADAR)
Sat 01:05:06 AM -25.3050 114.9160 166° South 429 494 35,000 -74 Descending FlightAware ADS-B
Sat 01:05:44 AM -25.3790 114.9370 166° South 429 494 35,000  Level FlightAware ADS-B
Sat 01:06:26 AM -25.4600 114.9590 166° South 430 495 35,000 76 Level FlightAware ADS-B
Sat 01:07:03 AM -25.5303 114.9799 166° South 420 483 35,100  Climbing Aus ATC (RADAR)
Sat 01:07:08 AM -25.5420 114.9820 166° South 431 496 35,000  Descending FlightAware ADS-B
Sat 01:07:38 AM -25.5981 114.9991 166° South 420 483 35,100  Climbing Aus ATC (RADAR)
Sat 01:07:51 AM -25.6230 115.0050 166° South 429 494 35,000  Descending FlightAware ADS-B
Sat 01:08:23 AM -25.6848 115.0231 166° South 420 483 35,100  Climbing Aus ATC (RADAR)
Sat 01:08:34 AM -25.7070 115.0280 166° South 430 495 35,000  Descending FlightAware ADS-B
Sat 01:09:08 AM -25.7723 115.0480 166° South 422 486 35,100  Climbing Aus ATC (RADAR)
Sat 01:09:14 AM -25.7840 115.0490 166° South 430 495 35,000 -125 Descending FlightAware ADS-B
Sat 01:09:56 AM -25.8660 115.0730 165° South 431 496 35,000 61 Level FlightAware ADS-B
Sat 01:10:53 AM -25.9744 115.1039 165° South 421 484 35,100  Climbing Aus ATC (RADAR)
Sat 01:10:55 AM -25.9800 115.1040 165° South 433 498 35,000 -146 Descending FlightAware ADS-B
Sat 01:11:34 AM -26.0560 115.1260 165° South 433 498 35,000  Level FlightAware ADS-B
Sat 01:12:14 AM -26.1340 115.1460 167° South 431 496 35,000  Level FlightAware ADS-B
Sat 01:13:13 AM -26.2360 115.1740 166° South 429 494 35,000  Level FlightAware ADS-B
Sat 01:13:52 AM -26.3220 115.1960 167° South 429 494 35,000  Level FlightAware ADS-B
Sat 01:14:34 AM -26.4030 115.2180 166° South 429 494 35,000  Level FlightAware ADS-B
Sat 01:15:18 AM -26.4900 115.2410 167° South 430 495 35,000  Level FlightAware ADS-B
Sat 01:15:56 AM -26.5640 115.2610 166° South 429 494 35,000  Level FlightAware ADS-B
Sat 01:16:40 AM -26.6480 115.2840 166° South 427 491 35,000  Level FlightAware ADS-B
Sat 01:17:22 AM -26.7300 115.3070 166° South 428 493 35,000  Level FlightAware ADS-B
Sat 01:18:02 AM -26.8070 115.3290 166° South 427 491 35,000  Level FlightAware ADS-B
Sat 01:18:47 AM -26.8910 115.3520 166° South 426 490 35,000  Level FlightAware ADS-B
Sat 01:19:08 AM -26.9423 115.3712 173° South 35,000  Level Aus ATC (Calculated)
Sat 01:19:28 AM -26.9720 115.3750 166° South 426 490 35,000  Level FlightAware ADS-B
Sat 01:20:12 AM -27.0560 115.3990 166° South 428 493 35,000  Level FlightAware ADS-B
Sat 01:20:30 AM -27.1322 115.4247 302° West 35,000  Level Aus ATC (Calculated)
Sat 01:20:51 AM -27.1290 115.4190 166° South 427 491 35,000  Level FlightAware ADS-B
Sat 01:21:35 AM -27.2140 115.4430 166° South 424 488 35,000  Level FlightAware ADS-B
Sat 01:22:16 AM -27.2930 115.4660 165° South 422 486 35,000  Level FlightAware ADS-B
Sat 01:23:15 AM -27.3950 115.4960 165° South 423 487 35,000  Level FlightAware ADS-B
Sat 01:23:17 AM -27.4922 115.5266 341° North 35,000  Level Aus ATC (Calculated)
Sat 01:23:51 AM -27.4510 115.5110 165° South 424 488 35,000  Level FlightAware ADS-B
Sat 01:24:15 AM -27.6079 115.5595 342° North 35,000  Level Aus ATC (Calculated)
Sat 01:24:35 AM -27.5570 115.5410 165° South 425 489 35,000  Level FlightAware ADS-B
Sat 01:24:42 AM -27.6947 115.5842 343° North 35,000  Level Aus ATC (Calculated)
Sat 01:25:11 AM -27.6260 115.5610 165° South 425 489 35,000  Level FlightAware ADS-B
Sat 01:25:35 AM -27.7598 115.6028 343° North 35,000  Level Aus ATC (Calculated)
Sat 01:26:16 AM -27.7150 115.5870 165° South 424 488 35,000 79 Level FlightAware ADS-B
Sat 01:26:51 AM -27.8167 115.6129 165° South 428 493 35,100  Climbing Aus ATC (RADAR)
Sat 01:26:52 AM -27.7730 115.6050 165° South 424 488 35,000  Descending FlightAware ADS-B
Sat 01:27:31 AM -27.8930 115.6382 165° South 426 490 35,100  Climbing Aus ATC (RADAR)
Sat 01:27:36 AM -27.8930 115.6380 165° South 426 490 35,000  Descending FlightAware ADS-B
Sat 01:28:06 AM -27.9588 115.6535 165° South 416 479 35,100  Climbing Aus ATC (RADAR)
Sat 01:28:12 AM -27.9510 115.6560 165° South 426 490 35,000  Descending FlightAware ADS-B
Sat 01:28:46 AM -28.0353 115.6736 165° South 414 476 35,100  Climbing Aus ATC (RADAR)
Sat 01:29:01 AM -28.0310 115.6800 165° South 426 490 35,000  Descending FlightAware ADS-B
Sat 01:29:31 AM -28.1219 115.6966 165° South 417 480 35,100  Climbing Aus ATC (RADAR)
Sat 01:29:37 AM -28.0890 115.6980 165° South 426 490 35,000 -83 Descending FlightAware ADS-B
Sat 01:30:43 AM -28.1960 115.7300 165° South 426 490 35,000  Level FlightAware ADS-B
Sat 01:31:19 AM -28.2540 115.7480 165° South 426 490 35,000  Level FlightAware ADS-B
Sat 01:31:57 AM -28.4000 115.7850 165° South 429 494 35,000 143 Level FlightAware ADS-B
Sat 01:32:01 AM -28.4091 115.7832 165° South 412 474 35,100 140 Climbing Aus ATC (RADAR)
Sat 01:32:40 AM -28.4858 115.8069 165° South 410 472 35,100 -146 Level Aus ATC (RADAR)
Sat 01:32:42 AM -28.4890 115.8110 165° South 418 481 35,000  Descending FlightAware ADS-B
Sat 01:33:15 AM -28.5530 115.8255 165° South 415 478 35,100  Climbing Aus ATC (RADAR)
Sat 01:33:27 AM -28.5740 115.8360 165° South 419 482 35,000 -115 Descending FlightAware ADS-B
Sat 01:34:07 AM -28.6520 115.8590 165° South 429 494 35,000  Level FlightAware ADS-B
Sat 01:34:47 AM -28.7290 115.8820 165° South 429 494 35,000  Level FlightAware ADS-B
Sat 01:35:33 AM -28.8160 115.9070 166° South 429 494 35,000 72 Level FlightAware ADS-B
Sat 01:36:10 AM -28.8883 115.9240 166° South 413 475 35,100  Climbing Aus ATC (RADAR)
Sat 01:36:14 AM -28.8950 115.9300 166° South 419 482 35,000  Descending FlightAware ADS-B
Sat 01:36:45 AM -28.9559 115.9437 166° South 417 480 35,100  Climbing Aus ATC (RADAR)
Sat 01:36:54 AM -28.9720 115.9530 166° South 428 493 35,000  Descending FlightAware ADS-B
Sat 01:37:35 AM -29.0516 115.9711 166° South 419 482 35,100  Climbing Aus ATC (RADAR)
Sat 01:37:40 AM -29.0620 115.9790 166° South 428 493 35,000  Descending FlightAware ADS-B
Sat 01:38:10 AM -29.1184 115.9921 166° South 423 487 35,100  Climbing Aus ATC (RADAR)
Sat 01:38:19 AM -29.1380 116.0020 166° South 428 493 35,000  Descending FlightAware ADS-B
Sat 01:39:00 AM -29.2145 116.0227 166° South 418 481 35,100  Climbing Aus ATC (RADAR)
Sat 01:39:05 AM -29.2260 116.0300 166° South 440 506 35,000  Descending FlightAware ADS-B
Sat 01:39:35 AM -29.2822 116.0514 166° South 430 495 35,100  Climbing Aus ATC (RADAR)
Sat 01:39:46 AM -29.3040 116.0650 166° South 445 512 35,000  Descending FlightAware ADS-B
Sat 01:40:20 AM -29.3688 116.0900 166° South 440 506 35,100  Climbing Aus ATC (RADAR)
Sat 01:40:30 AM -29.3890 116.1020 166° South 446 513 35,000 -130 Descending FlightAware ADS-B
Sat 01:41:06 AM -29.4580 116.1330 159° South 445 512 35,000  Level FlightAware ADS-B
Sat 01:41:51 AM -29.5440 116.1720 158° South 436 502 35,000  Level FlightAware ADS-B
Sat 01:42:31 AM -29.6210 116.2070 158° South 435 501 35,000  Level FlightAware ADS-B
Sat 01:43:15 AM -29.7050 116.2450 159° South 432 497 35,000  Level FlightAware ADS-B
Sat 01:43:55 AM -29.7810 116.2790 159° South 431 496 35,000 76 Level FlightAware ADS-B
Sat 01:44:34 AM -29.8537 116.3074 159° South 427 491 35,100  Climbing Aus ATC (RADAR)
Sat 01:44:41 AM -29.8670 116.3170 159° South 430 495 35,000 -130 Descending FlightAware ADS-B
Sat 01:45:20 AM -29.9420 116.3510 159° South 429 494 35,000  Level FlightAware ADS-B
Sat 01:46:01 AM -30.0180 116.3850 159° South 429 494 35,000  Level FlightAware ADS-B
Sat 01:46:47 AM -30.1040 116.4240 159° South 430 495 35,000  Level FlightAware ADS-B
Sat 01:47:27 AM -30.1810 116.4590 159° South 431 496 35,000  Level FlightAware ADS-B
Sat 01:48:07 AM -30.2560 116.4930 159° South 430 495 35,000 143 Level FlightAware ADS-B
Sat 01:48:09 AM -30.2590 116.4926 159° South 430 495 35,100  Climbing Aus ATC (RADAR)
Sat 01:48:51 AM -30.3410 116.5280 160° South 421 484 35,000  Descending FlightAware ADS-B
Sat 01:49:29 AM -30.4107 116.5482 160° South 423 487 35,100  Climbing Aus ATC (RADAR)
Sat 01:49:32 AM -30.4180 116.5510 160° South 408 470 35,000 -140 Descending FlightAware ADS-B
Sat 01:50:12 AM -30.4910 116.5650 171° South 392 451 35,000 -237 Level FlightAware ADS-B
Sat 01:50:48 AM -30.5579 116.5682 171° South 394 453 34,700 -571 Descending Aus ATC (RADAR)
Sat 01:50:54 AM -30.5710 116.5700 171° South 385 443 34,600 -941 Descending FlightAware ADS-B
Sat 01:51:39 AM -30.6500 116.5660 182° South 374 430 33,900 -911 Descending FlightAware ADS-B
Sat 01:52:13 AM -30.7054 116.5565 182° South 368 423 33,400 -1,050 Descending Aus ATC (RADAR)
Sat 01:52:19 AM -30.7180 116.5550 182° South 362 417 33,200 -1,080 Descending FlightAware ADS-B
Sat 01:53:03 AM -30.7867 116.5357 182° South 359 413 32,500 -933 Descending Aus ATC (RADAR)
Sat 01:53:04 AM -30.7900 116.5360 182° South 354 407 32,500 -1,024 Level FlightAware ADS-B
Sat 01:53:44 AM -30.8520 116.5120 198° South 341 392 31,800 -1,024 Descending FlightAware ADS-B
Sat 01:54:26 AM -30.9140 116.4860 200° South 361 415 31,100 -975 Descending FlightAware ADS-B
Sat 01:55:04 AM -30.9780 116.4600 199° South 360 414 30,500 -2,024 Descending FlightAware ADS-B
Sat 01:55:49 AM -31.0520 116.4310 199° South 389 448 28,300 -2,753 Descending FlightAware ADS-B
Sat 01:56:29 AM -31.1210 116.4050 198° South 373 429 26,600 -2,500 Descending FlightAware ADS-B
Sat 01:57:13 AM -31.1910 116.3781 198° South 370 426 24,800 -2,800 Descending Aus ATC (RADAR)
Sat 01:57:14 AM -31.1930 116.3770 198° South 374 430 24,500 -3,429 Descending FlightAware ADS-B
Sat 01:57:48 AM -31.2485 116.3567 198° South 369 425 22,800 -3,150 Descending Aus ATC (RADAR)
Sat 01:57:54 AM -31.2610 116.3520 198° South 369 425 22,400 -2,667 Descending FlightAware ADS-B
Sat 01:58:42 AM -31.3368 116.3228 198° South 360 414 20,400 -2,375 Descending Aus ATC (RADAR)
Sat 01:58:42 AM -31.3320 116.3250 198° South 355 409 20,500 -2,323 Climbing FlightAware ADS-B
Sat 01:59:13 AM -31.3827 116.3047 198° South 349 402 19,200 -2,595 Descending Aus ATC (RADAR)
Sat 01:59:19 AM -31.3930 116.3010 198° South 342 394 18,900 -3,130 Descending FlightAware ADS-B
Sat 01:59:59 AM -31.4490 116.2700 205° Southwest 331 381 16,800 -3,035 Descending FlightAware ADS-B
Sat 02:00:44 AM -31.5120 116.2300 208° Southwest 330 380 14,600 -2,069 Descending FlightAware ADS-B
Sat 02:01:26 AM -31.5640 116.1960 209° Southwest 299 344 13,800 -1,575 Descending FlightAware ADS-B
Sat 02:02:04 AM -31.6130 116.1650 208° Southwest 297 342 12,500 -1,952 Descending FlightAware ADS-B
Sat 02:02:49 AM -31.6660 116.1300 209° Southwest 291 335 11,100 -1,558 Descending FlightAware ADS-B
Sat 02:03:21 AM -31.6929 116.1133 209° Southwest 286 329 10,500 -1,733 Descending Aus ATC (RADAR)
Sat 02:03:34 AM -31.7190 116.0960 209° Southwest 292 336 9,800 -2,233 Descending FlightAware ADS-B
Sat 02:04:04 AM -31.7550 116.0750 206° Southwest 282 325 8,900 -1,855 Descending FlightAware ADS-B
Sat 02:04:29 AM -31.7880 116.0670 192° South 276 318 8,100 -1,560 Descending FlightAware ADS-B
Sat 02:04:54 AM -31.8200 116.0610 189° South 276 318 7,600 -1,309 Descending FlightAware ADS-B
Sat 02:05:24 AM -31.8580 116.0730 165° South 284 327 6,900 -1,562 Descending FlightAware ADS-B
Sat 02:06:07 AM -31.9088 116.0991 165° South 280 322 5,700 -1,315 Descending Aus ATC (RADAR)
Sat 02:06:37 AM -31.9340 116.1130 165° South 264 304 5,300 -1,320 Descending FlightAware ADS-B
Sat 02:06:57 AM -31.9660 116.1280 165° South 257 296 4,600 -1,800 Descending FlightAware ADS-B
Sat 02:07:07 AM -31.9765 116.1281 165° South 253 291 4,400 -1,371 Descending Aus ATC (RADAR)
Sat 02:07:32 AM -32.0060 116.1150 195° South 252 290 3,800 -1,176 Descending FlightAware ADS-B
Sat 02:07:58 AM -32.0340 116.1030 200° South 249 287 3,400 -857 Descending FlightAware ADS-B
Sat 02:08:14 AM -32.0500 116.0940 205° Southwest 237 273 3,200 -643 Descending FlightAware ADS-B
Sat 02:08:26 AM -32.0590 116.0840 223° Southwest 223 257 3,100 -480 Descending FlightAware ADS-B
Sat 02:08:39 AM -32.0640 116.0700 247° West 211 243 3,000 -732 Descending FlightAware ADS-B
Sat 02:09:07 AM -32.0620 116.0420 275° West 193 222 2,600 -800 Descending FlightAware ADS-B
Sat 02:09:39 AM -32.0560 116.0080 282° West 186 214 2,200 -800 Descending FlightAware ADS-B
Sat 02:10:07 AM -32.0500 115.9810 285° West 183 211 1,800 -483 Descending FlightAware ADS-B
Sat 02:11:06 AM -32.0265 115.9417 285° West 151 174 1,500 -495 Descending Aus ATC (RADAR)
Sat 02:11:56 AM -31.9965 115.9486 11° North 126 145 900 -86 Descending Aus ATC (RADAR)
Sat 02:12:16 AM -32.0270 115.9420 11° North 145 167 1,400 -750 Climbing FlightAware ADS-B
Sat 02:12:44 AM -31.9700 115.9560 12° North 119 137 300 -2,357 Descending FlightAware ADS-B
Sat 02:13:09 AM -31.9560 115.9600 14° North 120 138 -720 Descending FlightAware ADS-B
Sat 02:13:34 AM -31.9470 115.9630 16° North 47 54  Level FlightAware ADS-B
Sat 02:13:54 AM -31.9450 115.9640 23° Northeast 16 18  Level FlightAware ADS-B
Sat 02:14:19 AM -31.9450 115.9650 90° East 12 14  Level FlightAware ADS-B
Sat 02:14:34 AM -31.9450 115.9660 90° East 10 12  Level FlightAware ADS-B
Sat 02:15:15 AM -31.9440 115.9680 59° Northeast 11 13  Level FlightAware ADS-B
Sat 02:15:27 AM -31.9430 115.9680 360° North 9 10  Level FlightAware ADS-B
Sat 02:15:47 AM -31.9440 115.9690 140° Southeast 8 9  Level FlightAware ADS-B
Sat 02:18:00 AM -31.9402 115.9669 52° Northeast  Level FlightAware Approximate

Login

Don't have an account? Register now (free) for customized features, flight alerts, and more!